createdAt,value
2023-02-26T00:00:48.160Z,99557.16
2023-02-26T00:04:18.682Z,99562.81
2023-02-26T00:07:46.299Z,99569.17
2023-02-26T00:11:14.667Z,99572.50
2023-02-26T00:14:43.589Z,99584.12
2023-02-26T00:18:15.360Z,99587.24
2023-02-26T00:21:45.026Z,99587.31
2023-02-26T00:25:13.938Z,99597.20
2023-02-26T00:28:45.948Z,99603.21
2023-02-26T00:32:14.758Z,99607.14
2023-02-26T00:35:42.888Z,99614.20
2023-02-26T00:39:31.427Z,99617.39
2023-02-26T00:42:59.759Z,99621.52
2023-02-26T00:46:37.456Z,99629.77
2023-02-26T00:50:18.465Z,99629.94
2023-02-26T00:53:53.998Z,99636.53
2023-02-26T00:57:21.380Z,99641.81
2023-02-26T01:00:49.359Z,99649.52
2023-02-26T01:04:18.834Z,99648.37
2023-02-26T01:07:55.888Z,99653.16
2023-02-26T01:11:25.072Z,99655.23
2023-02-26T01:14:53.636Z,99656.08
2023-02-26T01:18:25.573Z,99658.08
2023-02-26T01:22:01.689Z,99666.06
2023-02-26T01:25:33.246Z,99668.49
2023-02-26T01:29:05.590Z,99679.80
2023-02-26T01:32:43.963Z,99673.70
2023-02-26T01:36:20.152Z,99681.48
2023-02-26T01:39:58.366Z,99684.64
2023-02-26T01:43:31.015Z,99691.59
2023-02-26T01:47:18.691Z,99694.02
2023-02-26T01:50:47.570Z,99707.92
2023-02-26T01:54:15.559Z,99706.27
2023-02-26T01:57:45.843Z,99712.65
2023-02-26T02:01:12.600Z,99714.40
2023-02-26T02:04:42.346Z,99719.05
2023-02-26T02:08:10.249Z,99726.58
2023-02-26T02:11:41.453Z,99729.64
2023-02-26T02:15:13.800Z,99728.87
2023-02-26T02:18:51.303Z,99737.61
2023-02-26T02:22:40.035Z,99744.94
2023-02-26T02:26:39.520Z,99758.40
2023-02-26T02:30:25.780Z,99763.05
2023-02-26T02:34:04.711Z,99767.50
2023-02-26T02:37:36.162Z,99767.80
2023-02-26T02:41:10.969Z,99772.73
2023-02-26T02:44:44.960Z,99780.38
2023-02-26T02:48:19.840Z,99782.86
2023-02-26T02:51:51.984Z,99789.79
2023-02-26T02:55:23.313Z,99790.09
2023-02-26T02:58:54.020Z,99803.70
2023-02-26T03:02:27.137Z,99809.32
2023-02-26T03:05:56.430Z,99808.77
2023-02-26T03:09:23.308Z,99809.01
2023-02-26T03:12:51.484Z,99807.55
2023-02-26T03:16:44.164Z,99813.34
2023-02-26T03:20:22.589Z,99824.73
2023-02-26T03:23:57.099Z,99833.10
2023-02-26T03:27:28.517Z,99840.77
2023-02-26T03:31:00.634Z,99846.77
2023-02-26T03:34:34.886Z,99851.75
2023-02-26T03:38:06.491Z,99854.15
2023-02-26T03:41:40.161Z,99861.49
2023-02-26T03:45:12.546Z,99865.58
2023-02-26T03:48:40.178Z,99868.98
2023-02-26T03:52:09.530Z,99874.95
2023-02-26T03:56:04.114Z,99883.65
2023-02-26T03:59:40.652Z,99890.44
2023-02-26T04:03:28.978Z,99891.23
2023-02-26T04:06:57.328Z,99897.87
2023-02-26T04:10:31.301Z,99899.98
2023-02-26T04:13:58.089Z,99903.68
2023-02-26T04:17:25.166Z,99909.17
2023-02-26T04:20:52.995Z,99920.66
2023-02-26T04:24:19.917Z,99926.55
2023-02-26T04:27:56.667Z,99932.22
2023-02-26T04:31:24.413Z,99938.54
2023-02-26T04:34:52.087Z,99937.40
2023-02-26T04:38:19.252Z,99943.73
2023-02-26T04:41:46.187Z,99948.23
2023-02-26T04:45:13.434Z,99953.86
2023-02-26T04:48:40.293Z,99962.20
2023-02-26T04:52:07.448Z,99969.66
2023-02-26T04:55:35.500Z,99969.40
2023-02-26T04:59:03.879Z,99972.55
2023-02-26T05:02:31.338Z,99979.66
2023-02-26T05:05:58.331Z,99984.52
2023-02-26T05:09:26.032Z,99989.96
2023-02-26T05:12:53.940Z,100001.36
2023-02-26T05:16:21.275Z,99998.34
2023-02-26T05:19:48.444Z,100005.36
2023-02-26T05:23:17.815Z,100012.73
2023-02-26T05:26:45.415Z,100015.02
2023-02-26T05:30:17.988Z,100021.25
2023-02-26T05:33:45.693Z,100028.50
2023-02-26T05:37:13.160Z,100031.73
2023-02-26T05:40:41.155Z,100035.32
2023-02-26T05:44:08.752Z,100040.98
2023-02-26T05:47:36.318Z,100049.66
2023-02-26T05:51:03.577Z,100059.34
2023-02-26T05:54:30.369Z,100066.98
2023-02-26T05:57:58.318Z,100080.39
2023-02-26T06:01:28.130Z,100086.70
2023-02-26T06:04:56.053Z,100093.17
2023-02-26T06:08:23.434Z,100098.65
2023-02-26T06:11:50.607Z,100104.70
2023-02-26T06:15:17.804Z,100113.30
2023-02-26T06:18:44.991Z,100118.09
2023-02-26T06:22:11.800Z,100125.45
2023-02-26T06:25:39.316Z,100136.49
2023-02-26T06:29:06.971Z,100137.63
2023-02-26T06:32:34.364Z,100145.91
2023-02-26T06:36:01.602Z,100146.86
2023-02-26T06:39:28.538Z,100151.90
2023-02-26T06:42:55.345Z,100157.49
2023-02-26T06:46:22.126Z,100166.06
2023-02-26T06:49:49.978Z,100170.73
2023-02-26T06:53:17.149Z,100178.05
2023-02-26T06:56:43.992Z,100179.88
2023-02-26T07:00:14.030Z,100183.42
2023-02-26T07:03:42.343Z,100189.56
2023-02-26T07:07:09.309Z,100195.73
2023-02-26T07:10:37.385Z,100197.91
2023-02-26T07:14:03.780Z,100208.27
2023-02-26T07:17:33.237Z,100211.63
2023-02-26T07:21:00.498Z,100217.99
2023-02-26T07:24:27.709Z,100225.70
2023-02-26T07:27:54.950Z,100229.02
2023-02-26T07:31:21.790Z,100239.02
2023-02-26T07:34:49.383Z,100243.45
2023-02-26T07:38:19.550Z,100252.33
2023-02-26T07:41:46.292Z,100256.96
2023-02-26T07:45:18.917Z,100263.84
2023-02-26T07:48:46.086Z,100265.42
2023-02-26T07:52:12.539Z,100269.05
2023-02-26T07:55:39.474Z,100276.24
2023-02-26T07:59:07.248Z,100285.44
2023-02-26T08:02:34.324Z,100292.42
2023-02-26T08:06:01.255Z,100297.14
2023-02-26T08:09:28.741Z,100300.00
2023-02-26T08:12:56.335Z,100301.69
2023-02-26T08:16:24.640Z,100304.27
2023-02-26T08:19:51.368Z,100311.77
2023-02-26T08:23:18.176Z,100315.41
2023-02-26T08:26:46.476Z,100319.39
2023-02-26T08:30:16.054Z,100324.17
2023-02-26T08:33:43.259Z,100326.40
2023-02-26T08:37:11.832Z,100334.71
2023-02-26T08:40:38.491Z,100339.94
2023-02-26T08:44:04.945Z,100345.16
2023-02-26T08:47:32.000Z,100351.80
2023-02-26T08:51:03.030Z,100357.72
2023-02-26T08:54:29.755Z,100367.20
2023-02-26T08:57:56.369Z,100366.44
2023-02-26T09:01:23.065Z,100373.20
2023-02-26T09:04:50.585Z,100383.88
2023-02-26T09:08:20.883Z,100392.38
2023-02-26T09:11:48.258Z,100400.63
2023-02-26T09:15:15.784Z,100409.45
2023-02-26T09:18:42.947Z,100409.24
2023-02-26T09:22:10.387Z,100420.91
2023-02-26T09:25:39.100Z,100429.21
2023-02-26T09:29:06.447Z,100439.55
2023-02-26T09:32:33.512Z,100444.51
2023-02-26T09:36:00.566Z,100450.59
2023-02-26T09:39:27.862Z,100453.84
2023-02-26T09:43:07.540Z,100458.17
2023-02-26T09:46:42.482Z,100463.02
2023-02-26T09:50:17.589Z,100472.47
2023-02-26T09:53:45.348Z,100483.14
2023-02-26T09:57:16.666Z,100484.14
2023-02-26T10:00:52.052Z,100491.40
2023-02-26T10:04:26.418Z,100498.08
2023-02-26T10:08:01.029Z,100510.02
2023-02-26T10:11:35.549Z,100512.33
2023-02-26T10:15:09.791Z,100520.80
2023-02-26T10:18:42.203Z,100521.94
2023-02-26T10:22:19.238Z,100529.17
2023-02-26T10:25:49.621Z,100539.31
2023-02-26T10:29:25.588Z,100543.89
2023-02-26T10:33:01.276Z,100545.26
2023-02-26T10:36:31.350Z,100545.98
2023-02-26T10:40:06.870Z,100555.27
2023-02-26T10:43:40.535Z,100560.94
2023-02-26T10:47:17.196Z,100569.39
2023-02-26T10:50:49.941Z,100569.23
2023-02-26T10:54:23.320Z,100573.80
2023-02-26T10:57:56.435Z,100578.48
2023-02-26T11:01:27.078Z,100584.19
2023-02-26T11:05:06.873Z,100592.87
2023-02-26T11:08:38.749Z,100594.77
2023-02-26T11:12:14.163Z,100594.02
2023-02-26T11:15:41.683Z,100590.61
2023-02-26T11:19:10.475Z,100594.83
2023-02-26T11:22:38.648Z,100600.38
2023-02-26T11:26:08.744Z,100601.90
2023-02-26T11:29:40.588Z,100609.58
2023-02-26T11:33:18.355Z,100612.02
2023-02-26T11:36:48.456Z,100625.94
2023-02-26T11:40:23.578Z,100626.93
2023-02-26T11:43:58.578Z,100634.12
2023-02-26T11:47:29.352Z,100642.36
2023-02-26T11:51:00.558Z,100651.64
2023-02-26T11:54:30.996Z,100656.23
2023-02-26T11:57:59.321Z,100660.82
2023-02-26T12:01:30.692Z,100666.09
2023-02-26T12:05:02.056Z,100665.27
2023-02-26T12:08:31.898Z,100669.06
2023-02-26T12:12:19.361Z,100675.16
2023-02-26T12:15:58.601Z,100676.80
2023-02-26T12:19:44.016Z,100678.52
2023-02-26T12:23:31.396Z,100680.98
2023-02-26T12:27:05.377Z,100688.55
2023-02-26T12:30:51.468Z,100688.62
2023-02-26T12:34:50.572Z,100685.05
2023-02-26T12:38:27.357Z,100689.45
2023-02-26T12:42:11.924Z,100688.81
2023-02-26T12:45:54.343Z,100690.88
2023-02-26T12:49:56.367Z,100690.61
2023-02-26T12:53:44.785Z,100692.79
2023-02-26T12:57:51.880Z,100697.11
2023-02-26T13:01:59.467Z,100706.59
2023-02-26T13:05:44.386Z,100709.70
2023-02-26T13:09:27.205Z,100714.70
2023-02-26T13:13:05.075Z,100718.16
2023-02-26T13:16:46.652Z,100728.56
2023-02-26T13:20:19.723Z,100733.67
2023-02-26T13:23:53.004Z,100737.27
2023-02-26T13:27:19.463Z,100741.38
2023-02-26T13:30:50.843Z,100747.39
2023-02-26T13:34:22.043Z,100749.95
2023-02-26T13:37:52.074Z,100748.25
2023-02-26T13:41:28.468Z,100752.64
2023-02-26T13:45:05.207Z,100755.96
2023-02-26T13:48:42.466Z,100760.91
2023-02-26T13:52:23.742Z,100764.34
2023-02-26T13:55:53.546Z,100767.61
2023-02-26T13:59:39.311Z,100770.05
2023-02-26T14:03:35.183Z,100780.60
2023-02-26T14:07:09.462Z,100779.99
2023-02-26T14:10:48.109Z,100784.69
2023-02-26T14:14:37.231Z,100787.48
2023-02-26T14:18:23.204Z,100785.64
2023-02-26T14:21:59.217Z,100792.04
2023-02-26T14:25:37.639Z,100794.13
2023-02-26T14:29:21.278Z,100798.09
2023-02-26T14:32:49.304Z,100801.05
2023-02-26T14:36:22.875Z,100805.08
2023-02-26T14:40:00.127Z,100807.52
2023-02-26T14:43:40.294Z,100805.80
2023-02-26T14:47:08.035Z,100810.06
2023-02-26T14:50:46.450Z,100810.77
2023-02-26T14:54:29.966Z,100817.35
2023-02-26T14:58:16.802Z,100820.83
2023-02-26T15:01:53.654Z,100827.19
2023-02-26T15:05:47.315Z,100829.43
2023-02-26T15:09:21.839Z,100833.71
2023-02-26T15:13:04.218Z,100839.88
2023-02-26T15:16:44.307Z,100848.35
2023-02-26T15:20:25.179Z,100853.72
2023-02-26T15:23:54.051Z,100858.23
2023-02-26T15:27:23.564Z,100868.23
2023-02-26T15:30:52.797Z,100868.80
2023-02-26T15:34:21.078Z,100869.58
2023-02-26T15:37:53.221Z,100881.14
2023-02-26T15:41:20.833Z,100887.89
2023-02-26T15:44:56.740Z,100883.13
2023-02-26T15:48:31.561Z,100885.61
2023-02-26T15:51:59.697Z,100890.77
2023-02-26T15:55:27.409Z,100896.80
2023-02-26T15:58:56.710Z,100904.05
2023-02-26T16:02:29.008Z,100910.58
2023-02-26T16:06:00.083Z,100913.02
2023-02-26T16:09:35.269Z,100917.68
2023-02-26T16:13:06.564Z,100924.58
2023-02-26T16:16:42.624Z,100928.20
2023-02-26T16:20:19.582Z,100930.10
2023-02-26T16:23:51.146Z,100934.74
2023-02-26T16:27:21.919Z,100936.99
2023-02-26T16:30:54.350Z,100940.42
2023-02-26T16:34:42.303Z,100946.09
2023-02-26T16:38:20.360Z,100952.63
2023-02-26T16:42:02.156Z,100961.36
2023-02-26T16:45:51.142Z,100963.59
2023-02-26T16:49:24.131Z,100965.64
2023-02-26T16:52:59.761Z,100970.96
2023-02-26T16:56:34.946Z,100982.27
2023-02-26T17:00:09.678Z,100986.01
2023-02-26T17:03:38.040Z,100985.84
2023-02-26T17:07:19.028Z,100981.73
2023-02-26T17:10:51.979Z,100974.02
2023-02-26T17:14:25.894Z,100977.77
2023-02-26T17:17:56.872Z,100983.27
2023-02-26T17:21:23.849Z,100987.21
2023-02-26T17:24:52.948Z,100992.89
2023-02-26T17:28:24.603Z,100998.37
2023-02-26T17:31:51.334Z,101000.27
2023-02-26T17:35:20.499Z,101001.65
2023-02-26T17:38:50.740Z,101010.05
2023-02-26T17:42:21.600Z,101011.42
2023-02-26T17:45:49.097Z,101020.17
2023-02-26T17:49:16.614Z,101014.88
2023-02-26T17:52:43.555Z,101017.64
2023-02-26T17:56:16.803Z,101023.30
2023-02-26T17:59:46.654Z,101029.30
2023-02-26T18:03:13.383Z,101028.13
2023-02-26T18:06:40.820Z,101030.02
2023-02-26T18:10:17.382Z,101028.31
2023-02-26T18:13:44.968Z,101029.18
2023-02-26T18:17:17.743Z,101031.23
2023-02-26T18:20:46.407Z,101033.98
2023-02-26T18:24:13.663Z,101040.30
2023-02-26T18:27:42.437Z,101041.34
2023-02-26T18:31:10.514Z,101042.37
2023-02-26T18:34:37.337Z,101053.48
2023-02-26T18:38:04.787Z,101051.94
2023-02-26T18:41:32.851Z,101057.25
2023-02-26T18:44:59.983Z,101055.70
2023-02-26T18:48:29.065Z,101057.08
2023-02-26T18:51:56.488Z,101062.20
2023-02-26T18:55:28.147Z,101068.17
2023-02-26T18:58:55.357Z,101073.82
2023-02-26T19:02:26.662Z,101080.14
2023-02-26T19:06:00.821Z,101079.81
2023-02-26T19:09:29.528Z,101080.50
2023-02-26T19:13:00.428Z,101088.35
2023-02-26T19:16:33.103Z,101096.58
2023-02-26T19:20:00.252Z,101106.14
2023-02-26T19:23:40.048Z,101108.20
2023-02-26T19:27:13.266Z,101113.32
2023-02-26T19:30:43.418Z,101118.45
2023-02-26T19:34:11.286Z,101119.81
2023-02-26T19:37:41.344Z,101126.83
2023-02-26T19:41:10.336Z,101127.17
2023-02-26T19:44:38.395Z,101127.19
2023-02-26T19:48:07.798Z,101132.66
2023-02-26T19:51:36.938Z,101131.96
2023-02-26T19:55:04.947Z,101134.02
2023-02-26T19:58:34.676Z,101142.38
2023-02-26T20:02:05.811Z,101138.11
2023-02-26T20:05:34.410Z,101142.89
2023-02-26T20:09:01.353Z,101142.91
2023-02-26T20:12:30.601Z,101147.17
2023-02-26T20:16:00.255Z,101149.74
2023-02-26T20:19:28.002Z,101152.48
2023-02-26T20:22:56.886Z,101153.86
2023-02-26T20:26:31.328Z,101162.91
2023-02-26T20:29:59.352Z,101167.69
2023-02-26T20:33:26.856Z,101168.89
2023-02-26T20:36:55.832Z,101167.86
2023-02-26T20:40:23.243Z,101167.17
2023-02-26T20:43:53.603Z,101166.48
2023-02-26T20:47:20.850Z,101171.98
2023-02-26T20:51:07.610Z,101176.95
2023-02-26T20:54:35.637Z,101179.86
2023-02-26T20:58:07.219Z,101181.89
2023-02-26T21:01:37.909Z,101185.33
2023-02-26T21:05:07.982Z,101185.48
2023-02-26T21:08:38.064Z,101190.95
2023-02-26T21:12:06.268Z,101190.95
2023-02-26T21:15:33.853Z,101191.79
2023-02-26T21:19:02.804Z,101191.77
2023-02-26T21:22:30.585Z,101191.58
2023-02-26T21:25:58.016Z,101194.80
2023-02-26T21:29:29.786Z,101200.08
2023-02-26T21:32:57.883Z,101200.38
2023-02-26T21:36:25.046Z,101203.77
2023-02-26T21:39:54.642Z,101209.03
2023-02-26T21:43:23.933Z,101216.52
2023-02-26T21:46:51.446Z,101220.77
2023-02-26T21:50:20.246Z,101226.20
2023-02-26T21:53:50.002Z,101230.95
2023-02-26T21:57:19.854Z,101232.63
2023-02-26T22:00:49.253Z,101234.47
2023-02-26T22:04:18.948Z,101235.66
2023-02-26T22:07:46.938Z,101240.44
2023-02-26T22:11:16.435Z,101241.13
2023-02-26T22:14:52.282Z,101244.88
2023-02-26T22:18:20.990Z,101245.75
2023-02-26T22:21:49.369Z,101250.58
2023-02-26T22:25:17.629Z,101250.27
2023-02-26T22:28:45.779Z,101252.84
2023-02-26T22:32:13.496Z,101254.26
2023-02-26T22:35:42.986Z,101259.56
2023-02-26T22:39:10.401Z,101261.80
2023-02-26T22:42:37.116Z,101263.49
2023-02-26T22:46:05.286Z,101267.06
2023-02-26T22:49:33.408Z,101267.36
2023-02-26T22:53:02.132Z,101271.94
2023-02-26T22:56:31.093Z,101269.83
2023-02-26T22:59:58.502Z,101271.86
2023-02-26T23:03:29.844Z,101277.27
2023-02-26T23:06:57.828Z,101276.89
2023-02-26T23:10:24.619Z,101277.20
2023-02-26T23:13:52.019Z,101283.65
2023-02-26T23:17:21.213Z,101286.52
2023-02-26T23:20:49.984Z,101290.58
2023-02-26T23:24:16.721Z,101289.34
2023-02-26T23:27:52.904Z,101301.61
2023-02-26T23:31:19.582Z,101307.89
2023-02-26T23:34:48.214Z,101311.98
2023-02-26T23:38:15.687Z,101310.44
2023-02-26T23:41:43.397Z,101307.71
2023-02-26T23:45:13.418Z,101309.13
2023-02-26T23:48:40.837Z,101312.56
2023-02-26T23:52:08.512Z,101316.04
2023-02-26T23:55:36.522Z,101315.92
2023-02-26T23:59:04.322Z,101312.53
